createdAt,value
2022-08-22T00:00:17.295Z,71.29
2022-08-22T00:03:04.651Z,60.00
2022-08-22T00:03:52.688Z,71.52
2022-08-22T00:06:29.868Z,71.99
2022-08-22T00:09:06.476Z,72.08
2022-08-22T00:11:58.379Z,74.47
2022-08-22T00:15:00.560Z,75.42
2022-08-22T00:17:53.492Z,73.93
2022-08-22T00:20:43.781Z,73.26
2022-08-22T00:23:35.788Z,74.80
2022-08-22T00:26:10.317Z,74.43
2022-08-22T00:29:03.510Z,73.74
2022-08-22T00:32:10.292Z,73.46
2022-08-22T00:35:03.624Z,73.30
2022-08-22T00:37:47.690Z,73.16
2022-08-22T00:41:12.046Z,73.21
2022-08-22T00:44:05.049Z,73.17
2022-08-22T00:46:40.311Z,73.21
2022-08-22T00:49:51.721Z,73.34
2022-08-22T00:53:01.997Z,73.26
2022-08-22T00:56:09.766Z,73.57
2022-08-22T00:59:00.186Z,73.40
2022-08-22T01:02:24.317Z,73.38
2022-08-22T01:05:25.177Z,73.45
2022-08-22T01:08:19.451Z,73.29
2022-08-22T01:11:04.850Z,73.42
2022-08-22T01:13:50.860Z,73.51
2022-08-22T01:16:44.460Z,73.64
2022-08-22T01:19:34.320Z,74.36
2022-08-22T01:22:35.775Z,75.26
2022-08-22T01:25:28.275Z,77.55
2022-08-22T01:28:29.962Z,76.47
2022-08-22T01:31:37.715Z,78.04
2022-08-22T01:34:28.023Z,78.21
2022-08-22T01:37:33.510Z,77.27
2022-08-22T01:40:24.408Z,76.34
2022-08-22T01:43:05.355Z,76.09
2022-08-22T01:45:52.402Z,75.74
2022-08-22T01:48:50.366Z,75.99
2022-08-22T01:51:30.177Z,76.07
2022-08-22T01:54:15.054Z,76.15
2022-08-22T01:56:49.402Z,76.22
2022-08-22T01:59:42.267Z,76.52
2022-08-22T02:02:24.711Z,76.19
2022-08-22T02:05:03.364Z,76.29
2022-08-22T02:08:18.204Z,76.41
2022-08-22T02:11:02.259Z,76.37
2022-08-22T02:13:52.672Z,76.53
2022-08-22T02:16:35.753Z,76.45
2022-08-22T02:19:17.449Z,76.35
2022-08-22T02:22:05.190Z,76.31
2022-08-22T02:24:47.170Z,76.31
2022-08-22T02:27:40.244Z,76.24
2022-08-22T02:30:23.765Z,76.33
2022-08-22T02:33:10.706Z,77.46
2022-08-22T02:36:05.636Z,76.93
2022-08-22T02:38:51.603Z,77.14
2022-08-22T02:42:00.600Z,79.80
2022-08-22T02:44:39.731Z,78.36
2022-08-22T02:48:04.287Z,79.62
2022-08-22T02:50:45.873Z,78.85
2022-08-22T02:53:40.431Z,78.19
2022-08-22T02:56:23.936Z,78.16
2022-08-22T02:59:26.539Z,78.08
2022-08-22T03:02:00.828Z,78.37
2022-08-22T03:04:37.634Z,77.99
2022-08-22T03:07:19.078Z,78.20
2022-08-22T03:10:03.649Z,78.07
2022-08-22T03:13:08.531Z,77.67
2022-08-22T03:15:56.033Z,77.87
2022-08-22T03:18:33.104Z,77.74
2022-08-22T03:21:36.170Z,77.58
2022-08-22T03:24:40.550Z,77.72
2022-08-22T03:27:52.581Z,77.57
2022-08-22T03:30:36.071Z,77.54
2022-08-22T03:33:28.415Z,77.41
2022-08-22T03:36:05.619Z,79.58
2022-08-22T03:38:38.138Z,79.41
2022-08-22T03:41:28.196Z,78.46
2022-08-22T03:44:40.758Z,78.21
2022-08-22T03:47:16.369Z,78.00
2022-08-22T03:50:24.303Z,77.93
2022-08-22T03:53:19.217Z,78.82
2022-08-22T03:56:09.099Z,78.37
2022-08-22T03:59:10.207Z,78.16
2022-08-22T04:01:43.192Z,78.35
2022-08-22T04:04:45.610Z,77.98
2022-08-22T04:07:46.876Z,78.11
2022-08-22T04:10:37.119Z,78.20
2022-08-22T04:13:26.111Z,77.96
2022-08-22T04:16:17.531Z,77.87
2022-08-22T04:18:56.030Z,78.34
2022-08-22T04:21:57.784Z,78.49
2022-08-22T04:24:52.368Z,78.08
2022-08-22T04:27:56.888Z,77.81
2022-08-22T04:30:44.645Z,77.59
2022-08-22T04:33:29.479Z,77.48
2022-08-22T04:36:32.638Z,77.43
2022-08-22T04:39:40.823Z,77.30
2022-08-22T04:42:40.839Z,77.33
2022-08-22T04:45:23.855Z,77.23
2022-08-22T04:48:08.192Z,77.15
2022-08-22T04:51:08.510Z,77.08
2022-08-22T04:53:57.048Z,77.25
2022-08-22T04:57:04.916Z,77.56
2022-08-22T04:59:39.090Z,77.56
2022-08-22T05:02:22.951Z,77.08
2022-08-22T05:05:04.895Z,76.91
2022-08-22T05:08:03.432Z,77.14
2022-08-22T05:10:42.435Z,77.85
2022-08-22T05:13:28.254Z,77.28
2022-08-22T05:16:07.559Z,77.08
2022-08-22T05:19:16.763Z,76.81
2022-08-22T05:21:53.358Z,76.70
2022-08-22T05:24:35.779Z,76.68
2022-08-22T05:27:31.292Z,75.97
2022-08-22T05:30:17.289Z,76.05
2022-08-22T05:33:07.510Z,75.80
2022-08-22T05:42:32.863Z,75.15
2022-08-22T05:45:12.054Z,75.00
2022-08-22T05:48:00.770Z,75.32
2022-08-22T05:50:51.063Z,74.81
2022-08-22T05:53:31.571Z,74.67
2022-08-22T05:56:18.358Z,74.81
2022-08-22T05:59:08.462Z,74.60
2022-08-22T06:01:52.429Z,74.22
2022-08-22T06:04:34.499Z,74.31
2022-08-22T06:07:13.637Z,74.41
2022-08-22T06:09:51.793Z,74.26
2022-08-22T06:12:46.170Z,73.89
2022-08-22T06:15:24.197Z,73.95
2022-08-22T06:18:15.445Z,73.72
2022-08-22T06:20:54.885Z,73.48
2022-08-22T06:23:39.008Z,73.47
2022-08-22T06:26:20.226Z,73.06
2022-08-22T06:29:01.631Z,73.09
2022-08-22T06:31:43.269Z,72.99
2022-08-22T06:34:26.146Z,72.43
2022-08-22T06:37:04.078Z,72.34
2022-08-22T06:39:44.445Z,72.18
2022-08-22T06:42:27.019Z,71.80
2022-08-22T06:45:05.341Z,71.56
2022-08-22T06:47:51.041Z,71.34
2022-08-22T06:50:35.209Z,71.24
2022-08-22T06:53:22.187Z,70.88
2022-08-22T06:56:06.063Z,70.15
2022-08-22T06:58:45.713Z,69.81
2022-08-22T07:01:26.456Z,69.26
2022-08-22T07:04:13.921Z,69.09
2022-08-22T07:06:51.022Z,68.61
2022-08-22T07:09:37.557Z,68.51
2022-08-22T07:12:20.103Z,68.09
2022-08-22T07:14:56.609Z,67.52
2022-08-22T07:17:36.767Z,67.27
2022-08-22T07:20:24.131Z,66.91
2022-08-22T07:23:08.355Z,66.51
2022-08-22T07:26:15.556Z,65.59
2022-08-22T07:29:14.518Z,64.68
2022-08-22T07:32:12.640Z,64.43
2022-08-22T07:35:16.395Z,63.45
2022-08-22T07:38:23.358Z,63.30
2022-08-22T07:41:32.318Z,62.73
2022-08-22T07:44:26.250Z,62.67
2022-08-22T07:47:07.655Z,61.89
2022-08-22T07:49:55.834Z,62.05
2022-08-22T07:52:38.567Z,62.01
2022-08-22T07:55:18.775Z,61.90
2022-08-22T07:58:04.300Z,61.69
2022-08-22T08:00:43.769Z,61.25
2022-08-22T08:03:17.745Z,60.82
2022-08-22T08:05:51.566Z,60.69
2022-08-22T08:08:42.262Z,60.37
2022-08-22T08:11:19.395Z,60.12
2022-08-22T08:14:13.570Z,59.74
2022-08-22T08:17:04.517Z,59.81
2022-08-22T08:19:42.797Z,59.75
2022-08-22T08:22:26.979Z,59.70
2022-08-22T08:25:02.890Z,59.35
2022-08-22T08:27:59.880Z,58.67
2022-08-22T08:30:51.352Z,58.18
2022-08-22T08:33:27.231Z,56.44
2022-08-22T08:36:18.174Z,55.63
2022-08-22T08:39:22.040Z,56.81
2022-08-22T08:42:15.297Z,56.97
2022-08-22T08:45:05.580Z,56.95
2022-08-22T08:47:40.678Z,56.82
2022-08-22T08:50:44.438Z,56.98
2022-08-22T08:54:00.031Z,56.74
2022-08-22T08:57:13.118Z,56.67
2022-08-22T08:59:55.703Z,57.09
2022-08-22T09:03:08.700Z,57.30
2022-08-22T09:05:50.752Z,57.09
2022-08-22T09:08:32.092Z,57.34
2022-08-22T09:11:52.261Z,57.10
2022-08-22T09:14:39.098Z,57.01
2022-08-22T09:17:41.809Z,56.50
2022-08-22T09:20:48.201Z,55.37
2022-08-22T09:23:56.667Z,52.06
2022-08-22T09:26:34.905Z,51.05
2022-08-22T09:29:55.204Z,51.56
2022-08-22T09:32:52.938Z,47.60
2022-08-22T09:35:51.339Z,46.77
2022-08-22T09:38:35.695Z,46.47
2022-08-22T09:41:43.417Z,47.36
2022-08-22T09:44:17.842Z,47.60
2022-08-22T09:47:10.479Z,46.63
2022-08-22T09:50:14.529Z,47.97
2022-08-22T09:53:12.469Z,47.42
2022-08-22T09:55:56.178Z,46.95
2022-08-22T09:58:58.273Z,46.93
2022-08-22T10:02:16.214Z,47.50
2022-08-22T10:05:00.115Z,48.36
2022-08-22T10:07:40.699Z,48.40
2022-08-22T10:10:36.305Z,48.03
2022-08-22T10:13:36.618Z,47.68
2022-08-22T10:16:18.490Z,47.32
2022-08-22T10:19:30.907Z,48.28
2022-08-22T10:22:34.191Z,48.25
2022-08-22T10:25:29.748Z,48.01
2022-08-22T10:28:04.936Z,47.77
2022-08-22T10:30:50.144Z,46.53
2022-08-22T10:33:31.793Z,45.99
2022-08-22T10:36:12.026Z,46.37
2022-08-22T10:38:56.244Z,46.98
2022-08-22T10:41:40.603Z,47.22
2022-08-22T10:44:22.242Z,47.41
2022-08-22T10:47:09.017Z,47.81
2022-08-22T10:50:11.538Z,47.94
2022-08-22T10:53:17.540Z,48.60
2022-08-22T10:56:08.119Z,48.19
2022-08-22T10:58:58.928Z,48.02
2022-08-22T11:01:41.981Z,48.11
2022-08-22T11:04:20.350Z,48.15
2022-08-22T11:07:36.063Z,47.53
2022-08-22T11:10:34.904Z,46.68
2022-08-22T11:13:32.465Z,46.61
2022-08-22T11:16:14.195Z,47.20
2022-08-22T11:19:02.562Z,46.83
2022-08-22T11:21:54.326Z,46.27
2022-08-22T11:24:55.832Z,45.78
2022-08-22T11:27:40.877Z,45.89
2022-08-22T11:30:22.699Z,45.25
2022-08-22T11:33:13.869Z,45.94
2022-08-22T11:36:06.141Z,45.36
2022-08-22T11:39:02.176Z,46.26
2022-08-22T11:42:04.896Z,45.88
2022-08-22T11:45:00.966Z,46.18
2022-08-22T11:47:44.346Z,45.15
2022-08-22T11:50:45.780Z,45.85
2022-08-22T11:53:31.064Z,45.74
2022-08-22T11:56:19.226Z,45.45
2022-08-22T11:59:06.188Z,45.24
2022-08-22T12:01:50.898Z,44.40
2022-08-22T12:04:46.825Z,44.30
2022-08-22T12:07:31.840Z,43.43
2022-08-22T12:10:18.256Z,43.32
2022-08-22T12:13:01.514Z,44.30
2022-08-22T12:15:47.111Z,45.74
2022-08-22T12:18:37.758Z,46.38
2022-08-22T12:21:52.898Z,46.69
2022-08-22T12:24:29.198Z,47.31
2022-08-22T12:27:28.532Z,47.63
2022-08-22T12:30:30.956Z,47.73
2022-08-22T12:33:06.532Z,47.78
2022-08-22T12:36:22.800Z,48.01
2022-08-22T12:39:25.009Z,47.93
2022-08-22T12:42:25.677Z,48.09
2022-08-22T12:45:18.956Z,47.67
2022-08-22T12:48:04.505Z,47.75
2022-08-22T12:50:52.919Z,47.26
2022-08-22T12:54:00.702Z,47.45
2022-08-22T12:56:51.662Z,47.88
2022-08-22T12:59:43.481Z,47.92
2022-08-22T13:02:40.644Z,47.92
2022-08-22T13:05:40.956Z,47.73
2022-08-22T13:08:26.471Z,47.67
2022-08-22T13:11:23.236Z,47.98
2022-08-22T13:14:03.154Z,47.82
2022-08-22T13:16:51.011Z,47.87
2022-08-22T13:19:34.660Z,47.77
2022-08-22T13:22:12.037Z,47.95
2022-08-22T13:25:00.827Z,48.10
2022-08-22T13:28:03.427Z,47.87
2022-08-22T13:30:43.978Z,48.13
2022-08-22T13:33:35.395Z,48.07
2022-08-22T13:36:11.559Z,48.41
2022-08-22T13:39:07.029Z,48.51
2022-08-22T13:41:50.303Z,48.77
2022-08-22T13:44:33.232Z,48.97
2022-08-22T13:47:20.409Z,48.91
2022-08-22T13:50:17.760Z,49.06
2022-08-22T13:53:00.903Z,49.51
2022-08-22T13:56:03.331Z,49.78
2022-08-22T13:58:55.979Z,49.95
2022-08-22T14:01:52.997Z,50.29
2022-08-22T14:04:34.713Z,50.54
2022-08-22T14:07:23.939Z,51.00
2022-08-22T14:10:14.642Z,51.32
2022-08-22T14:13:13.904Z,51.72
2022-08-22T14:15:47.161Z,51.76
2022-08-22T14:18:31.944Z,51.88
2022-08-22T14:21:40.653Z,52.33
2022-08-22T14:24:45.685Z,52.71
2022-08-22T14:27:35.952Z,52.79
2022-08-22T14:30:15.602Z,52.93
2022-08-22T14:33:00.300Z,53.45
2022-08-22T14:35:44.343Z,53.36
2022-08-22T14:38:31.563Z,54.25
2022-08-22T14:41:09.594Z,54.14
2022-08-22T14:44:05.792Z,54.26
2022-08-22T14:46:54.075Z,54.52
2022-08-22T14:49:38.224Z,54.92
2022-08-22T14:52:29.681Z,56.22
2022-08-22T14:55:15.172Z,56.75
2022-08-22T14:57:52.713Z,57.18
2022-08-22T15:00:50.145Z,57.69
2022-08-22T15:03:30.804Z,58.69
2022-08-22T15:06:13.868Z,61.17
2022-08-22T15:08:49.330Z,61.97
2022-08-22T15:11:32.032Z,60.22
2022-08-22T15:14:17.612Z,59.70
2022-08-22T15:16:58.074Z,59.59
2022-08-22T15:19:41.707Z,59.96
2022-08-22T15:22:29.748Z,59.62
2022-08-22T15:25:19.458Z,59.53
2022-08-22T15:28:20.500Z,59.94
2022-08-22T15:31:16.795Z,59.69
2022-08-22T15:33:50.720Z,59.81
2022-08-22T15:36:29.114Z,60.17
2022-08-22T15:39:34.135Z,60.99
2022-08-22T15:42:11.196Z,60.73
2022-08-22T15:44:56.804Z,60.22
2022-08-22T15:47:40.159Z,60.74
2022-08-22T15:50:48.963Z,61.09
2022-08-22T15:53:33.579Z,61.32
2022-08-22T15:56:16.195Z,61.46
2022-08-22T15:59:14.147Z,61.58
2022-08-22T16:02:23.824Z,61.37
2022-08-22T16:05:18.699Z,61.18
2022-08-22T16:08:08.468Z,61.05
2022-08-22T16:11:06.432Z,60.95
2022-08-22T16:13:44.998Z,61.03
2022-08-22T16:16:47.378Z,61.10
2022-08-22T16:19:23.021Z,61.14
2022-08-22T16:21:59.760Z,61.23
2022-08-22T16:24:34.041Z,61.74
2022-08-22T16:27:26.615Z,61.97
2022-08-22T16:30:09.524Z,62.46
2022-08-22T16:32:52.625Z,62.58
2022-08-22T16:36:00.355Z,63.31
2022-08-22T16:38:44.879Z,63.69
2022-08-22T16:41:41.259Z,64.05
2022-08-22T16:44:41.194Z,64.38
2022-08-22T16:47:15.868Z,64.54
2022-08-22T16:49:54.076Z,64.49
2022-08-22T16:52:29.464Z,64.73
2022-08-22T16:55:36.459Z,64.78
2022-08-22T16:58:56.138Z,65.16
2022-08-22T17:01:48.224Z,65.32
2022-08-22T17:04:38.554Z,65.45
2022-08-22T17:07:41.344Z,65.51
2022-08-22T17:10:41.327Z,65.82
2022-08-22T17:13:40.880Z,66.22
2022-08-22T17:16:53.930Z,66.55
2022-08-22T17:19:46.410Z,66.79
2022-08-22T17:22:28.972Z,67.17
2022-08-22T17:25:31.112Z,67.55
2022-08-22T17:28:38.778Z,67.93
2022-08-22T17:31:24.539Z,67.91
2022-08-22T17:34:34.929Z,67.95
2022-08-22T17:37:22.883Z,68.18
2022-08-22T17:40:29.542Z,68.05
2022-08-22T17:43:27.594Z,69.17
2022-08-22T17:46:13.241Z,69.53
2022-08-22T17:49:24.562Z,69.72
2022-08-22T17:52:41.544Z,69.05
2022-08-22T17:55:28.935Z,68.69
2022-08-22T17:58:37.463Z,68.36
2022-08-22T18:01:39.065Z,69.46
2022-08-22T18:04:26.323Z,70.57
2022-08-22T18:07:26.277Z,71.50
2022-08-22T18:10:24.789Z,71.83
2022-08-22T18:13:07.208Z,72.30
2022-08-22T18:16:06.288Z,72.63
2022-08-22T18:18:53.046Z,72.85
2022-08-22T18:21:49.227Z,74.44
2022-08-22T18:24:56.682Z,76.27
2022-08-22T18:27:47.348Z,77.07
2022-08-22T18:30:23.892Z,81.64
2022-08-22T18:33:02.289Z,84.91
2022-08-22T18:35:54.483Z,86.19
2022-08-22T18:38:37.388Z,85.37
2022-08-22T18:41:31.354Z,87.49
2022-08-22T18:44:13.888Z,87.67
2022-08-22T18:46:52.515Z,89.73
2022-08-22T18:49:29.400Z,89.96
2022-08-22T18:52:35.983Z,89.61
2022-08-22T18:55:23.741Z,88.13
2022-08-22T18:58:36.557Z,86.89
2022-08-22T19:01:44.654Z,86.18
2022-08-22T19:04:47.613Z,85.94
2022-08-22T19:07:34.603Z,85.85
2022-08-22T19:10:18.068Z,85.35
2022-08-22T19:13:10.907Z,85.29
2022-08-22T19:15:56.381Z,85.27
2022-08-22T19:18:55.953Z,85.95
2022-08-22T19:22:02.505Z,85.98
2022-08-22T19:25:00.171Z,86.03
2022-08-22T19:27:36.619Z,86.34
2022-08-22T19:30:30.659Z,86.73
2022-08-22T19:33:43.350Z,85.72
2022-08-22T19:36:35.528Z,85.30
2022-08-22T19:39:13.090Z,85.35
2022-08-22T19:41:58.571Z,88.30
2022-08-22T19:44:42.898Z,88.58
2022-08-22T19:47:36.194Z,88.43
2022-08-22T19:50:34.941Z,87.89
2022-08-22T19:53:40.371Z,87.45
2022-08-22T19:56:29.877Z,87.18
2022-08-22T19:59:28.350Z,88.22
2022-08-22T20:02:17.358Z,89.72
2022-08-22T20:04:55.541Z,89.91
2022-08-22T20:07:45.898Z,89.25
2022-08-22T20:10:25.252Z,88.96
2022-08-22T20:13:34.797Z,88.17
2022-08-22T20:16:21.828Z,88.12
2022-08-22T20:19:09.244Z,88.23
2022-08-22T20:22:00.881Z,88.13
2022-08-22T20:24:47.019Z,87.98
2022-08-22T20:27:37.060Z,87.87
2022-08-22T20:30:22.796Z,87.59
2022-08-22T20:33:02.745Z,87.69
2022-08-22T20:35:48.310Z,87.72
2022-08-22T20:38:55.710Z,87.46
2022-08-22T20:41:56.763Z,87.51
2022-08-22T20:44:45.091Z,87.67
2022-08-22T20:47:41.132Z,87.74
2022-08-22T20:50:25.000Z,87.48
2022-08-22T20:53:22.656Z,87.47
2022-08-22T20:56:03.930Z,87.86
2022-08-22T20:58:50.821Z,88.05
2022-08-22T21:01:26.465Z,88.02
2022-08-22T21:04:06.345Z,88.17
2022-08-22T21:06:41.215Z,88.10
2022-08-22T21:09:59.729Z,87.88
2022-08-22T21:12:34.611Z,88.29
2022-08-22T21:15:10.565Z,88.15
2022-08-22T21:17:44.209Z,88.16
2022-08-22T21:20:24.003Z,88.25
2022-08-22T21:23:03.518Z,88.24
2022-08-22T21:25:58.061Z,88.12
2022-08-22T21:29:01.239Z,88.31
2022-08-22T21:31:46.944Z,88.19
2022-08-22T21:34:27.826Z,88.06
2022-08-22T21:37:17.874Z,88.25
2022-08-22T21:40:03.494Z,88.34
2022-08-22T21:42:42.406Z,88.32
2022-08-22T21:45:33.632Z,88.28
2022-08-22T21:48:24.654Z,88.53
2022-08-22T21:51:18.587Z,88.82
2022-08-22T21:54:17.565Z,89.09
2022-08-22T21:56:51.519Z,89.06
2022-08-22T21:59:51.076Z,88.88
2022-08-22T22:02:37.615Z,88.80
2022-08-22T22:05:17.039Z,88.79
2022-08-22T22:07:52.582Z,89.00
2022-08-22T22:10:28.570Z,88.98
2022-08-22T22:13:03.924Z,88.81
2022-08-22T22:15:46.415Z,88.81
2022-08-22T22:18:23.755Z,88.75
2022-08-22T22:20:59.408Z,88.59
2022-08-22T22:23:34.595Z,88.64
2022-08-22T22:26:10.111Z,88.88
2022-08-22T22:28:49.498Z,88.96
2022-08-22T22:31:24.628Z,88.85
2022-08-22T22:34:00.059Z,88.95
2022-08-22T22:36:36.434Z,89.11
2022-08-22T22:39:11.706Z,88.62
2022-08-22T22:41:46.596Z,88.55
2022-08-22T22:44:21.737Z,88.59
2022-08-22T22:47:03.963Z,88.46
2022-08-22T22:49:38.979Z,88.42
2022-08-22T22:52:13.628Z,88.67
2022-08-22T22:54:48.688Z,88.64
2022-08-22T22:57:25.659Z,88.57
2022-08-22T23:00:01.152Z,88.11
2022-08-22T23:02:36.169Z,87.99
2022-08-22T23:05:13.141Z,88.08
2022-08-22T23:07:48.421Z,88.57
2022-08-22T23:10:23.203Z,88.40
2022-08-22T23:12:57.980Z,88.66
2022-08-22T23:15:32.851Z,88.36
2022-08-22T23:18:08.033Z,88.38
2022-08-22T23:20:43.377Z,88.30
2022-08-22T23:23:19.122Z,88.49
2022-08-22T23:26:00.369Z,88.23
2022-08-22T23:28:35.163Z,88.41
2022-08-22T23:31:21.705Z,88.59
2022-08-22T23:33:56.133Z,88.84
2022-08-22T23:36:30.981Z,88.77
2022-08-22T23:39:06.406Z,88.76
2022-08-22T23:41:42.435Z,88.66
2022-08-22T23:44:19.184Z,88.92
2022-08-22T23:46:54.376Z,88.65
2022-08-22T23:49:29.192Z,89.05
2022-08-22T23:52:04.011Z,88.97
2022-08-22T23:54:39.033Z,88.79
2022-08-22T23:57:15.992Z,88.89
2022-08-22T23:59:57.945Z,89.06
